sensor_id;sensor_type;location;lat;lon;timestamp;temperature;humidity
19522;DHT22;9905;52.126;5.596;2022-11-20T00:02:10;-2.10;99.90
19522;DHT22;9905;52.126;5.596;2022-11-20T00:04:37;-2.10;99.90
19522;DHT22;9905;52.126;5.596;2022-11-20T00:07:04;-2.10;99.90
19522;DHT22;9905;52.126;5.596;2022-11-20T00:09:31;-2.10;99.90
19522;DHT22;9905;52.126;5.596;2022-11-20T00:11:58;-2.10;99.90
19522;DHT22;9905;52.126;5.596;2022-11-20T00:14:24;-2.10;99.90
19522;DHT22;9905;52.126;5.596;2022-11-20T00:16:51;-2.10;99.90
19522;DHT22;9905;52.126;5.596;2022-11-20T00:19:19;-2.10;99.90
19522;DHT22;9905;52.126;5.596;2022-11-20T00:21:46;-2.10;99.90
19522;DHT22;9905;52.126;5.596;2022-11-20T00:24:13;-2.10;99.90
19522;DHT22;9905;52.126;5.596;2022-11-20T00:26:40;-2.10;99.90
19522;DHT22;9905;52.126;5.596;2022-11-20T00:29:08;-2.10;99.90
19522;DHT22;9905;52.126;5.596;2022-11-20T00:31:36;-2.20;99.90
19522;DHT22;9905;52.126;5.596;2022-11-20T00:34:02;-2.20;99.90
19522;DHT22;9905;52.126;5.596;2022-11-20T00:36:33;-2.20;99.90
19522;DHT22;9905;52.126;5.596;2022-11-20T00:39:00;-2.20;99.90
19522;DHT22;9905;52.126;5.596;2022-11-20T00:41:28;-2.30;99.90
19522;DHT22;9905;52.126;5.596;2022-11-20T00:43:55;-2.30;99.90
19522;DHT22;9905;52.126;5.596;2022-11-20T00:46:23;-2.30;99.90
19522;DHT22;9905;52.126;5.596;2022-11-20T00:48:50;-2.30;99.90
19522;DHT22;9905;52.126;5.596;2022-11-20T00:51:20;-2.40;99.90
19522;DHT22;9905;52.126;5.596;2022-11-20T00:53:48;-2.40;99.90
19522;DHT22;9905;52.126;5.596;2022-11-20T00:56:16;-2.40;99.90
19522;DHT22;9905;52.126;5.596;2022-11-20T00:58:45;-2.40;99.90
19522;DHT22;9905;52.126;5.596;2022-11-20T01:01:13;-2.40;99.90
19522;DHT22;9905;52.126;5.596;2022-11-20T01:03:43;-2.40;99.90
19522;DHT22;9905;52.126;5.596;2022-11-20T01:06:13;-2.40;99.90
19522;DHT22;9905;52.126;5.596;2022-11-20T01:08:40;-2.50;99.90
19522;DHT22;9905;52.126;5.596;2022-11-20T01:11:09;-2.50;99.90
19522;DHT22;9905;52.126;5.596;2022-11-20T01:13:37;-2.50;99.90
19522;DHT22;9905;52.126;5.596;2022-11-20T01:16:05;-2.50;99.90
19522;DHT22;9905;52.126;5.596;2022-11-20T01:18:32;-2.50;99.90
19522;DHT22;9905;52.126;5.596;2022-11-20T01:21:03;-2.60;99.90
19522;DHT22;9905;52.126;5.596;2022-11-20T01:23:31;-2.50;99.90
19522;DHT22;9905;52.126;5.596;2022-11-20T01:26:00;-2.50;99.90
19522;DHT22;9905;52.126;5.596;2022-11-20T01:28:29;-2.50;99.90
19522;DHT22;9905;52.126;5.596;2022-11-20T01:30:56;-2.50;99.90
19522;DHT22;9905;52.126;5.596;2022-11-20T01:33:23;-2.40;99.90
19522;DHT22;9905;52.126;5.596;2022-11-20T01:35:50;-2.40;99.90
19522;DHT22;9905;52.126;5.596;2022-11-20T01:38:17;-2.40;99.90
19522;DHT22;9905;52.126;5.596;2022-11-20T01:40:45;-2.40;99.90
19522;DHT22;9905;52.126;5.596;2022-11-20T01:43:20;-2.30;99.90
19522;DHT22;9905;52.126;5.596;2022-11-20T01:46:13;-2.40;99.90
19522;DHT22;9905;52.126;5.596;2022-11-20T01:48:48;-2.30;99.90
19522;DHT22;9905;52.126;5.596;2022-11-20T01:51:21;-2.40;99.90
19522;DHT22;9905;52.126;5.596;2022-11-20T01:53:50;-2.40;99.90
19522;DHT22;9905;52.126;5.596;2022-11-20T01:56:18;-2.40;99.90
19522;DHT22;9905;52.126;5.596;2022-11-20T01:58:49;-2.50;99.90
19522;DHT22;9905;52.126;5.596;2022-11-20T02:01:19;-2.50;99.90
19522;DHT22;9905;52.126;5.596;2022-11-20T02:03:46;-2.40;99.90
19522;DHT22;9905;52.126;5.596;2022-11-20T02:06:18;-2.40;99.90
19522;DHT22;9905;52.126;5.596;2022-11-20T02:08:45;-2.50;99.90
19522;DHT22;9905;52.126;5.596;2022-11-20T02:11:12;-2.50;99.90
19522;DHT22;9905;52.126;5.596;2022-11-20T02:13:39;-2.50;99.90
19522;DHT22;9905;52.126;5.596;2022-11-20T02:16:11;-2.50;99.90
19522;DHT22;9905;52.126;5.596;2022-11-20T02:18:40;-2.50;99.90
19522;DHT22;9905;52.126;5.596;2022-11-20T02:21:12;-2.60;99.90
19522;DHT22;9905;52.126;5.596;2022-11-20T02:23:54;-2.50;99.90
19522;DHT22;9905;52.126;5.596;2022-11-20T02:26:22;-2.50;99.90
19522;DHT22;9905;52.126;5.596;2022-11-20T02:28:50;-2.60;99.90
19522;DHT22;9905;52.126;5.596;2022-11-20T02:31:17;-2.50;99.90
19522;DHT22;9905;52.126;5.596;2022-11-20T02:33:44;-2.60;99.90
19522;DHT22;9905;52.126;5.596;2022-11-20T02:36:14;-2.70;99.90
19522;DHT22;9905;52.126;5.596;2022-11-20T02:38:41;-2.60;99.90
19522;DHT22;9905;52.126;5.596;2022-11-20T02:41:10;-2.70;99.90
19522;DHT22;9905;52.126;5.596;2022-11-20T02:43:37;-2.80;99.90
19522;DHT22;9905;52.126;5.596;2022-11-20T02:46:06;-2.90;99.90
19522;DHT22;9905;52.126;5.596;2022-11-20T02:48:33;-2.90;99.90
19522;DHT22;9905;52.126;5.596;2022-11-20T02:51:00;-3.00;99.90
19522;DHT22;9905;52.126;5.596;2022-11-20T02:53:27;-3.00;99.90
19522;DHT22;9905;52.126;5.596;2022-11-20T02:55:54;-3.00;99.90
19522;DHT22;9905;52.126;5.596;2022-11-20T02:58:23;-3.00;99.90
19522;DHT22;9905;52.126;5.596;2022-11-20T03:00:49;-3.00;99.90
19522;DHT22;9905;52.126;5.596;2022-11-20T03:03:16;-3.00;99.90
19522;DHT22;9905;52.126;5.596;2022-11-20T03:05:43;-3.00;99.90
19522;DHT22;9905;52.126;5.596;2022-11-20T03:08:09;-3.00;99.90
19522;DHT22;9905;52.126;5.596;2022-11-20T03:10:36;-3.00;99.90
19522;DHT22;9905;52.126;5.596;2022-11-20T03:13:03;-3.00;99.90
19522;DHT22;9905;52.126;5.596;2022-11-20T03:15:31;-3.00;99.90
19522;DHT22;9905;52.126;5.596;2022-11-20T03:17:57;-3.10;99.90
19522;DHT22;9905;52.126;5.596;2022-11-20T03:20:24;-3.10;99.90
19522;DHT22;9905;52.126;5.596;2022-11-20T03:22:53;-3.10;99.90
19522;DHT22;9905;52.126;5.596;2022-11-20T03:25:20;-3.10;99.90
19522;DHT22;9905;52.126;5.596;2022-11-20T03:27:47;-3.10;99.90
19522;DHT22;9905;52.126;5.596;2022-11-20T03:30:14;-3.10;99.90
19522;DHT22;9905;52.126;5.596;2022-11-20T03:32:42;-3.10;99.90
19522;DHT22;9905;52.126;5.596;2022-11-20T03:35:09;-3.10;99.90
19522;DHT22;9905;52.126;5.596;2022-11-20T03:37:36;-3.10;99.90
19522;DHT22;9905;52.126;5.596;2022-11-20T03:40:04;-3.20;99.90
19522;DHT22;9905;52.126;5.596;2022-11-20T03:42:31;-3.10;99.90
19522;DHT22;9905;52.126;5.596;2022-11-20T03:45:13;-3.20;99.90
19522;DHT22;9905;52.126;5.596;2022-11-20T03:47:41;-3.20;99.90
19522;DHT22;9905;52.126;5.596;2022-11-20T03:50:10;-3.30;99.90
19522;DHT22;9905;52.126;5.596;2022-11-20T03:52:37;-3.30;99.90
19522;DHT22;9905;52.126;5.596;2022-11-20T03:55:05;-3.30;99.90
19522;DHT22;9905;52.126;5.596;2022-11-20T03:57:32;-3.40;99.90
19522;DHT22;9905;52.126;5.596;2022-11-20T03:59:59;-3.40;99.90
19522;DHT22;9905;52.126;5.596;2022-11-20T04:02:25;-3.40;99.90
19522;DHT22;9905;52.126;5.596;2022-11-20T04:04:53;-3.40;99.90
19522;DHT22;9905;52.126;5.596;2022-11-20T04:07:20;-3.40;99.90
19522;DHT22;9905;52.126;5.596;2022-11-20T04:09:47;-3.40;99.90
19522;DHT22;9905;52.126;5.596;2022-11-20T04:12:13;-3.40;99.90
19522;DHT22;9905;52.126;5.596;2022-11-20T04:14:40;-3.40;99.90
19522;DHT22;9905;52.126;5.596;2022-11-20T04:17:07;-3.40;99.90
19522;DHT22;9905;52.126;5.596;2022-11-20T04:19:33;-3.40;99.90
19522;DHT22;9905;52.126;5.596;2022-11-20T04:22:01;-3.40;99.90
19522;DHT22;9905;52.126;5.596;2022-11-20T04:24:28;-3.40;99.90
19522;DHT22;9905;52.126;5.596;2022-11-20T04:26:55;-3.40;99.90
19522;DHT22;9905;52.126;5.596;2022-11-20T04:29:22;-3.50;99.90
19522;DHT22;9905;52.126;5.596;2022-11-20T04:31:48;-3.50;99.90
19522;DHT22;9905;52.126;5.596;2022-11-20T04:34:15;-3.50;99.90
19522;DHT22;9905;52.126;5.596;2022-11-20T04:36:42;-3.40;99.90
19522;DHT22;9905;52.126;5.596;2022-11-20T04:39:13;-3.30;99.90
19522;DHT22;9905;52.126;5.596;2022-11-20T04:41:41;-3.40;99.90
19522;DHT22;9905;52.126;5.596;2022-11-20T04:44:07;-3.30;99.90
19522;DHT22;9905;52.126;5.596;2022-11-20T04:46:36;-3.50;99.90
19522;DHT22;9905;52.126;5.596;2022-11-20T04:49:03;-3.50;99.90
19522;DHT22;9905;52.126;5.596;2022-11-20T04:51:30;-3.50;99.90
19522;DHT22;9905;52.126;5.596;2022-11-20T04:53:57;-3.50;99.90
19522;DHT22;9905;52.126;5.596;2022-11-20T04:56:25;-3.50;99.90
19522;DHT22;9905;52.126;5.596;2022-11-20T04:58:52;-3.50;99.90
19522;DHT22;9905;52.126;5.596;2022-11-20T05:01:20;-3.50;99.90
19522;DHT22;9905;52.126;5.596;2022-11-20T05:03:47;-3.50;99.90
19522;DHT22;9905;52.126;5.596;2022-11-20T05:06:16;-3.50;99.90
19522;DHT22;9905;52.126;5.596;2022-11-20T05:08:43;-3.60;99.90
19522;DHT22;9905;52.126;5.596;2022-11-20T05:11:11;-3.50;99.90
19522;DHT22;9905;52.126;5.596;2022-11-20T05:13:40;-3.60;99.90
19522;DHT22;9905;52.126;5.596;2022-11-20T05:16:09;-3.50;99.90
19522;DHT22;9905;52.126;5.596;2022-11-20T05:18:36;-3.50;99.90
19522;DHT22;9905;52.126;5.596;2022-11-20T05:21:03;-3.50;99.90
19522;DHT22;9905;52.126;5.596;2022-11-20T05:23:31;-3.50;99.90
19522;DHT22;9905;52.126;5.596;2022-11-20T05:25:59;-3.50;99.90
19522;DHT22;9905;52.126;5.596;2022-11-20T05:28:27;-3.60;99.90
19522;DHT22;9905;52.126;5.596;2022-11-20T05:30:55;-3.60;99.90
19522;DHT22;9905;52.126;5.596;2022-11-20T05:33:22;-3.70;99.90
19522;DHT22;9905;52.126;5.596;2022-11-20T05:35:49;-3.70;99.90
19522;DHT22;9905;52.126;5.596;2022-11-20T05:38:15;-3.60;99.90
19522;DHT22;9905;52.126;5.596;2022-11-20T05:40:42;-3.70;99.90
19522;DHT22;9905;52.126;5.596;2022-11-20T05:43:09;-3.70;99.90
19522;DHT22;9905;52.126;5.596;2022-11-20T05:45:36;-3.70;99.90
19522;DHT22;9905;52.126;5.596;2022-11-20T05:48:04;-3.70;99.90
19522;DHT22;9905;52.126;5.596;2022-11-20T05:50:31;-3.70;99.90
19522;DHT22;9905;52.126;5.596;2022-11-20T05:52:58;-3.60;99.90
19522;DHT22;9905;52.126;5.596;2022-11-20T05:55:25;-3.60;99.90
19522;DHT22;9905;52.126;5.596;2022-11-20T05:57:53;-3.60;99.90
19522;DHT22;9905;52.126;5.596;2022-11-20T06:00:20;-3.70;99.90
19522;DHT22;9905;52.126;5.596;2022-11-20T06:02:47;-3.80;99.90
19522;DHT22;9905;52.126;5.596;2022-11-20T06:05:15;-3.80;99.90
19522;DHT22;9905;52.126;5.596;2022-11-20T06:07:41;-3.80;99.90
19522;DHT22;9905;52.126;5.596;2022-11-20T06:10:09;-3.90;99.90
19522;DHT22;9905;52.126;5.596;2022-11-20T06:12:36;-3.90;99.90
19522;DHT22;9905;52.126;5.596;2022-11-20T06:15:03;-3.90;99.90
19522;DHT22;9905;52.126;5.596;2022-11-20T06:17:30;-4.00;99.90
19522;DHT22;9905;52.126;5.596;2022-11-20T06:19:57;-4.00;99.90
19522;DHT22;9905;52.126;5.596;2022-11-20T06:22:25;-4.00;99.90
19522;DHT22;9905;52.126;5.596;2022-11-20T06:24:51;-4.00;99.90
19522;DHT22;9905;52.126;5.596;2022-11-20T06:27:18;-4.00;99.90
19522;DHT22;9905;52.126;5.596;2022-11-20T06:29:45;-4.00;99.90
19522;DHT22;9905;52.126;5.596;2022-11-20T06:32:12;-3.90;99.90
19522;DHT22;9905;52.126;5.596;2022-11-20T06:34:38;-3.90;99.90
19522;DHT22;9905;52.126;5.596;2022-11-20T06:37:05;-3.90;99.90
19522;DHT22;9905;52.126;5.596;2022-11-20T06:39:33;-3.90;99.90
19522;DHT22;9905;52.126;5.596;2022-11-20T06:42:00;-4.00;99.90
19522;DHT22;9905;52.126;5.596;2022-11-20T06:44:27;-4.00;99.90
19522;DHT22;9905;52.126;5.596;2022-11-20T06:46:53;-4.00;99.90
19522;DHT22;9905;52.126;5.596;2022-11-20T06:49:20;-4.10;99.90
19522;DHT22;9905;52.126;5.596;2022-11-20T06:51:47;-4.10;99.90
19522;DHT22;9905;52.126;5.596;2022-11-20T06:54:13;-4.10;99.90
19522;DHT22;9905;52.126;5.596;2022-11-20T06:56:41;-4.00;99.90
19522;DHT22;9905;52.126;5.596;2022-11-20T06:59:08;-4.00;99.90
19522;DHT22;9905;52.126;5.596;2022-11-20T07:01:35;-4.00;99.90
19522;DHT22;9905;52.126;5.596;2022-11-20T07:04:01;-4.00;99.90
19522;DHT22;9905;52.126;5.596;2022-11-20T07:06:28;-4.00;99.90
19522;DHT22;9905;52.126;5.596;2022-11-20T07:08:55;-4.00;99.90
19522;DHT22;9905;52.126;5.596;2022-11-20T07:11:22;-4.00;99.90
19522;DHT22;9905;52.126;5.596;2022-11-20T07:13:50;-4.00;99.90
19522;DHT22;9905;52.126;5.596;2022-11-20T07:16:17;-3.90;99.90
19522;DHT22;9905;52.126;5.596;2022-11-20T07:18:44;-3.90;99.90
19522;DHT22;9905;52.126;5.596;2022-11-20T07:21:11;-3.80;99.90
19522;DHT22;9905;52.126;5.596;2022-11-20T07:23:37;-3.80;99.90
19522;DHT22;9905;52.126;5.596;2022-11-20T07:26:05;-3.80;99.90
19522;DHT22;9905;52.126;5.596;2022-11-20T07:28:32;-3.80;99.90
19522;DHT22;9905;52.126;5.596;2022-11-20T07:31:01;-3.80;99.90
19522;DHT22;9905;52.126;5.596;2022-11-20T07:33:28;-3.80;99.90
19522;DHT22;9905;52.126;5.596;2022-11-20T07:35:55;-3.80;99.90
19522;DHT22;9905;52.126;5.596;2022-11-20T07:38:21;-3.80;99.90
19522;DHT22;9905;52.126;5.596;2022-11-20T07:40:48;-3.80;99.90
19522;DHT22;9905;52.126;5.596;2022-11-20T07:43:15;-3.70;99.90
19522;DHT22;9905;52.126;5.596;2022-11-20T07:45:41;-3.80;99.90
19522;DHT22;9905;52.126;5.596;2022-11-20T07:48:09;-3.70;99.90
19522;DHT22;9905;52.126;5.596;2022-11-20T07:50:36;-3.70;99.90
19522;DHT22;9905;52.126;5.596;2022-11-20T07:53:03;-3.60;99.90
19522;DHT22;9905;52.126;5.596;2022-11-20T07:55:31;-3.60;99.90
19522;DHT22;9905;52.126;5.596;2022-11-20T07:57:58;-3.50;99.90
19522;DHT22;9905;52.126;5.596;2022-11-20T08:00:26;-3.50;99.90
19522;DHT22;9905;52.126;5.596;2022-11-20T08:02:53;-3.50;99.90
19522;DHT22;9905;52.126;5.596;2022-11-20T08:05:21;-3.40;99.90
19522;DHT22;9905;52.126;5.596;2022-11-20T08:07:48;-3.40;99.90
19522;DHT22;9905;52.126;5.596;2022-11-20T08:10:15;-3.30;99.90
19522;DHT22;9905;52.126;5.596;2022-11-20T08:12:46;-3.20;99.90
19522;DHT22;9905;52.126;5.596;2022-11-20T08:15:30;-3.10;99.90
19522;DHT22;9905;52.126;5.596;2022-11-20T08:18:02;-3.10;99.90
19522;DHT22;9905;52.126;5.596;2022-11-20T08:20:30;-3.00;99.90
19522;DHT22;9905;52.126;5.596;2022-11-20T08:22:58;-2.90;99.90
19522;DHT22;9905;52.126;5.596;2022-11-20T08:25:26;-2.90;99.90
19522;DHT22;9905;52.126;5.596;2022-11-20T08:27:52;-2.80;99.90
19522;DHT22;9905;52.126;5.596;2022-11-20T08:30:19;-2.70;99.90
19522;DHT22;9905;52.126;5.596;2022-11-20T08:32:46;-2.70;99.90
19522;DHT22;9905;52.126;5.596;2022-11-20T08:35:12;-2.60;99.90
19522;DHT22;9905;52.126;5.596;2022-11-20T08:37:41;-2.50;99.90
19522;DHT22;9905;52.126;5.596;2022-11-20T08:40:09;-2.40;99.90
19522;DHT22;9905;52.126;5.596;2022-11-20T08:42:36;-2.40;99.90
19522;DHT22;9905;52.126;5.596;2022-11-20T08:45:04;-2.30;99.90
19522;DHT22;9905;52.126;5.596;2022-11-20T08:47:31;-2.20;99.90
19522;DHT22;9905;52.126;5.596;2022-11-20T08:49:57;-2.10;99.90
19522;DHT22;9905;52.126;5.596;2022-11-20T08:52:24;-1.90;99.90
19522;DHT22;9905;52.126;5.596;2022-11-20T08:54:52;-1.80;99.90
19522;DHT22;9905;52.126;5.596;2022-11-20T08:57:19;-1.80;99.90
19522;DHT22;9905;52.126;5.596;2022-11-20T08:59:45;-1.70;99.90
19522;DHT22;9905;52.126;5.596;2022-11-20T09:02:12;-1.70;99.90
19522;DHT22;9905;52.126;5.596;2022-11-20T09:04:39;-1.60;99.90
19522;DHT22;9905;52.126;5.596;2022-11-20T09:07:06;-1.50;99.90
19522;DHT22;9905;52.126;5.596;2022-11-20T09:09:33;-1.50;99.90
19522;DHT22;9905;52.126;5.596;2022-11-20T09:12:01;-1.40;99.90
19522;DHT22;9905;52.126;5.596;2022-11-20T09:14:27;-1.30;99.90
19522;DHT22;9905;52.126;5.596;2022-11-20T09:16:55;-1.20;99.90
19522;DHT22;9905;52.126;5.596;2022-11-20T09:19:23;-1.10;99.90
19522;DHT22;9905;52.126;5.596;2022-11-20T09:21:50;-1.00;99.90
19522;DHT22;9905;52.126;5.596;2022-11-20T09:24:17;-0.90;99.90
19522;DHT22;9905;52.126;5.596;2022-11-20T09:26:44;-0.90;99.90
19522;DHT22;9905;52.126;5.596;2022-11-20T09:29:12;-0.90;99.90
19522;DHT22;9905;52.126;5.596;2022-11-20T09:31:39;-0.90;99.90
19522;DHT22;9905;52.126;5.596;2022-11-20T09:34:06;-0.90;99.90
19522;DHT22;9905;52.126;5.596;2022-11-20T09:36:32;-0.80;99.90
19522;DHT22;9905;52.126;5.596;2022-11-20T09:38:59;-0.80;99.90
19522;DHT22;9905;52.126;5.596;2022-11-20T09:41:49;-0.60;99.90
19522;DHT22;9905;52.126;5.596;2022-11-20T09:44:35;-0.50;99.90
19522;DHT22;9905;52.126;5.596;2022-11-20T09:47:08;-0.40;99.90
19522;DHT22;9905;52.126;5.596;2022-11-20T09:49:52;-0.30;99.90
19522;DHT22;9905;52.126;5.596;2022-11-20T09:52:25;-0.30;99.90
19522;DHT22;9905;52.126;5.596;2022-11-20T09:54:55;-0.20;99.90
19522;DHT22;9905;52.126;5.596;2022-11-20T09:57:25;-0.10;99.90
19522;DHT22;9905;52.126;5.596;2022-11-20T09:59:56;0.00;99.90
19522;DHT22;9905;52.126;5.596;2022-11-20T10:02:28;0.00;99.90
19522;DHT22;9905;52.126;5.596;2022-11-20T10:05:01;0.10;99.90
19522;DHT22;9905;52.126;5.596;2022-11-20T10:07:30;0.20;99.90
19522;DHT22;9905;52.126;5.596;2022-11-20T10:09:59;0.20;99.90
19522;DHT22;9905;52.126;5.596;2022-11-20T10:12:32;0.30;99.90
19522;DHT22;9905;52.126;5.596;2022-11-20T10:15:13;0.30;99.90
19522;DHT22;9905;52.126;5.596;2022-11-20T10:17:59;0.40;99.90
19522;DHT22;9905;52.126;5.596;2022-11-20T10:20:37;0.50;99.90
19522;DHT22;9905;52.126;5.596;2022-11-20T10:26:21;0.60;99.90
19522;DHT22;9905;52.126;5.596;2022-11-20T10:29:00;0.70;99.90
19522;DHT22;9905;52.126;5.596;2022-11-20T10:31:34;0.70;99.90
19522;DHT22;9905;52.126;5.596;2022-11-20T10:34:05;0.70;99.90
19522;DHT22;9905;52.126;5.596;2022-11-20T10:36:36;0.80;99.90
19522;DHT22;9905;52.126;5.596;2022-11-20T10:39:09;0.90;99.90
19522;DHT22;9905;52.126;5.596;2022-11-20T10:41:41;1.00;99.90
19522;DHT22;9905;52.126;5.596;2022-11-20T10:44:14;1.00;99.90
19522;DHT22;9905;52.126;5.596;2022-11-20T10:47:03;1.10;99.90
19522;DHT22;9905;52.126;5.596;2022-11-20T10:49:32;1.10;99.90
19522;DHT22;9905;52.126;5.596;2022-11-20T10:52:06;1.20;99.90
19522;DHT22;9905;52.126;5.596;2022-11-20T10:54:41;1.20;99.90
19522;DHT22;9905;52.126;5.596;2022-11-20T10:57:20;1.20;99.90
19522;DHT22;9905;52.126;5.596;2022-11-20T11:00:09;1.30;99.90
19522;DHT22;9905;52.126;5.596;2022-11-20T11:02:41;1.40;99.90
19522;DHT22;9905;52.126;5.596;2022-11-20T11:05:18;1.40;99.90
19522;DHT22;9905;52.126;5.596;2022-11-20T11:07:50;1.50;99.90
19522;DHT22;9905;52.126;5.596;2022-11-20T11:10:19;1.60;99.90
19522;DHT22;9905;52.126;5.596;2022-11-20T11:12:47;1.70;99.90
19522;DHT22;9905;52.126;5.596;2022-11-20T11:15:24;1.80;99.90
19522;DHT22;9905;52.126;5.596;2022-11-20T11:17:52;1.80;99.90
19522;DHT22;9905;52.126;5.596;2022-11-20T11:20:21;2.00;99.90
19522;DHT22;9905;52.126;5.596;2022-11-20T11:22:50;2.00;99.90
19522;DHT22;9905;52.126;5.596;2022-11-20T11:25:27;2.10;99.90
19522;DHT22;9905;52.126;5.596;2022-11-20T11:27:57;2.20;99.90
19522;DHT22;9905;52.126;5.596;2022-11-20T11:30:25;2.20;99.90
19522;DHT22;9905;52.126;5.596;2022-11-20T11:33:04;2.30;99.90
19522;DHT22;9905;52.126;5.596;2022-11-20T11:35:32;2.30;99.90
19522;DHT22;9905;52.126;5.596;2022-11-20T11:38:05;2.40;99.90
19522;DHT22;9905;52.126;5.596;2022-11-20T11:40:34;2.50;99.90
19522;DHT22;9905;52.126;5.596;2022-11-20T11:43:05;2.50;99.90
19522;DHT22;9905;52.126;5.596;2022-11-20T11:45:53;2.50;99.90
19522;DHT22;9905;52.126;5.596;2022-11-20T11:48:21;2.60;99.90
19522;DHT22;9905;52.126;5.596;2022-11-20T11:50:49;2.60;99.90
19522;DHT22;9905;52.126;5.596;2022-11-20T11:53:18;2.60;99.90
19522;DHT22;9905;52.126;5.596;2022-11-20T11:55:49;2.70;99.90
19522;DHT22;9905;52.126;5.596;2022-11-20T11:58:39;2.70;99.90
19522;DHT22;9905;52.126;5.596;2022-11-20T12:01:17;2.70;99.90
19522;DHT22;9905;52.126;5.596;2022-11-20T12:03:55;2.70;99.90
19522;DHT22;9905;52.126;5.596;2022-11-20T12:06:25;2.80;99.90
19522;DHT22;9905;52.126;5.596;2022-11-20T12:08:58;2.80;99.90
19522;DHT22;9905;52.126;5.596;2022-11-20T12:11:32;2.80;99.90
19522;DHT22;9905;52.126;5.596;2022-11-20T12:14:04;2.80;99.90
19522;DHT22;9905;52.126;5.596;2022-11-20T12:16:37;2.80;99.90
19522;DHT22;9905;52.126;5.596;2022-11-20T12:19:08;2.80;99.90
19522;DHT22;9905;52.126;5.596;2022-11-20T12:21:42;2.80;99.90
19522;DHT22;9905;52.126;5.596;2022-11-20T12:24:38;2.80;99.90
19522;DHT22;9905;52.126;5.596;2022-11-20T12:27:36;2.80;99.90
19522;DHT22;9905;52.126;5.596;2022-11-20T12:30:08;2.80;99.90
19522;DHT22;9905;52.126;5.596;2022-11-20T12:32:57;2.80;99.90
19522;DHT22;9905;52.126;5.596;2022-11-20T12:35:41;2.90;99.90
19522;DHT22;9905;52.126;5.596;2022-11-20T12:38:40;2.90;99.90
19522;DHT22;9905;52.126;5.596;2022-11-20T12:41:15;2.90;99.90
19522;DHT22;9905;52.126;5.596;2022-11-20T12:44:12;3.00;99.90
19522;DHT22;9905;52.126;5.596;2022-11-20T12:47:09;3.00;99.90
19522;DHT22;9905;52.126;5.596;2022-11-20T12:49:47;3.00;99.90
19522;DHT22;9905;52.126;5.596;2022-11-20T12:52:27;3.00;99.90
19522;DHT22;9905;52.126;5.596;2022-11-20T12:55:13;3.00;99.90
19522;DHT22;9905;52.126;5.596;2022-11-20T12:57:46;3.00;99.90
19522;DHT22;9905;52.126;5.596;2022-11-20T13:00:18;2.90;99.90
19522;DHT22;9905;52.126;5.596;2022-11-20T13:05:51;3.00;99.90
19522;DHT22;9905;52.126;5.596;2022-11-20T13:08:24;3.00;99.90
19522;DHT22;9905;52.126;5.596;2022-11-20T13:10:56;3.10;99.90
19522;DHT22;9905;52.126;5.596;2022-11-20T13:13:36;3.00;99.90
19522;DHT22;9905;52.126;5.596;2022-11-20T13:16:12;3.00;99.90
19522;DHT22;9905;52.126;5.596;2022-11-20T13:18:42;3.00;99.90
19522;DHT22;9905;52.126;5.596;2022-11-20T13:21:18;3.00;99.90
19522;DHT22;9905;52.126;5.596;2022-11-20T13:23:47;3.00;99.90
19522;DHT22;9905;52.126;5.596;2022-11-20T13:26:19;3.00;99.90
19522;DHT22;9905;52.126;5.596;2022-11-20T13:28:48;3.10;99.90
19522;DHT22;9905;52.126;5.596;2022-11-20T13:31:31;3.10;99.90
19522;DHT22;9905;52.126;5.596;2022-11-20T13:34:00;3.10;99.90
19522;DHT22;9905;52.126;5.596;2022-11-20T13:36:29;3.10;99.90
19522;DHT22;9905;52.126;5.596;2022-11-20T13:38:58;3.10;99.90
19522;DHT22;9905;52.126;5.596;2022-11-20T13:41:26;3.20;99.90
19522;DHT22;9905;52.126;5.596;2022-11-20T13:44:05;3.10;99.90
19522;DHT22;9905;52.126;5.596;2022-11-20T13:46:37;3.20;99.90
19522;DHT22;9905;52.126;5.596;2022-11-20T13:49:09;3.10;99.90
19522;DHT22;9905;52.126;5.596;2022-11-20T13:51:42;3.10;99.90
19522;DHT22;9905;52.126;5.596;2022-11-20T13:54:43;3.20;99.90
19522;DHT22;9905;52.126;5.596;2022-11-20T13:57:41;3.10;99.90
19522;DHT22;9905;52.126;5.596;2022-11-20T14:00:12;3.10;99.90
19522;DHT22;9905;52.126;5.596;2022-11-20T14:02:40;3.10;99.90
19522;DHT22;9905;52.126;5.596;2022-11-20T14:05:17;3.20;99.90
19522;DHT22;9905;52.126;5.596;2022-11-20T14:07:45;3.10;99.90
19522;DHT22;9905;52.126;5.596;2022-11-20T14:10:22;3.10;99.90
19522;DHT22;9905;52.126;5.596;2022-11-20T14:12:50;3.20;99.90
19522;DHT22;9905;52.126;5.596;2022-11-20T14:15:29;3.10;99.90
19522;DHT22;9905;52.126;5.596;2022-11-20T14:17:56;3.10;99.90
19522;DHT22;9905;52.126;5.596;2022-11-20T14:20:26;3.10;99.90
19522;DHT22;9905;52.126;5.596;2022-11-20T14:22:54;3.20;99.90
19522;DHT22;9905;52.126;5.596;2022-11-20T14:25:23;3.20;99.90
19522;DHT22;9905;52.126;5.596;2022-11-20T14:27:53;3.20;99.90
19522;DHT22;9905;52.126;5.596;2022-11-20T14:30:22;3.20;99.90
19522;DHT22;9905;52.126;5.596;2022-11-20T14:32:50;3.20;99.90
19522;DHT22;9905;52.126;5.596;2022-11-20T14:35:20;3.20;99.90
19522;DHT22;9905;52.126;5.596;2022-11-20T14:37:48;3.20;99.90
19522;DHT22;9905;52.126;5.596;2022-11-20T14:40:30;3.10;99.90
19522;DHT22;9905;52.126;5.596;2022-11-20T14:42:58;3.10;99.90
19522;DHT22;9905;52.126;5.596;2022-11-20T14:45:26;3.10;99.90
19522;DHT22;9905;52.126;5.596;2022-11-20T14:47:55;3.10;99.90
19522;DHT22;9905;52.126;5.596;2022-11-20T14:50:24;3.10;99.90
19522;DHT22;9905;52.126;5.596;2022-11-20T14:52:52;3.20;99.90
19522;DHT22;9905;52.126;5.596;2022-11-20T14:55:27;3.20;99.90
19522;DHT22;9905;52.126;5.596;2022-11-20T14:58:00;3.20;99.90
19522;DHT22;9905;52.126;5.596;2022-11-20T15:00:28;3.20;99.90
19522;DHT22;9905;52.126;5.596;2022-11-20T15:02:55;3.20;99.90
19522;DHT22;9905;52.126;5.596;2022-11-20T15:05:24;3.20;99.90
19522;DHT22;9905;52.126;5.596;2022-11-20T15:08:03;3.20;99.90
19522;DHT22;9905;52.126;5.596;2022-11-20T15:10:31;3.20;99.90
19522;DHT22;9905;52.126;5.596;2022-11-20T15:13:01;3.20;99.90
19522;DHT22;9905;52.126;5.596;2022-11-20T15:15:31;3.20;99.90
19522;DHT22;9905;52.126;5.596;2022-11-20T15:17:59;3.10;99.90
19522;DHT22;9905;52.126;5.596;2022-11-20T15:20:29;3.20;99.90
19522;DHT22;9905;52.126;5.596;2022-11-20T15:22:57;3.10;99.90
19522;DHT22;9905;52.126;5.596;2022-11-20T15:25:24;3.20;99.90
19522;DHT22;9905;52.126;5.596;2022-11-20T15:27:54;3.20;99.90
19522;DHT22;9905;52.126;5.596;2022-11-20T15:30:23;3.20;99.90
19522;DHT22;9905;52.126;5.596;2022-11-20T15:32:50;3.20;99.90
19522;DHT22;9905;52.126;5.596;2022-11-20T15:35:17;3.20;99.90
19522;DHT22;9905;52.126;5.596;2022-11-20T15:37:43;3.20;99.90
19522;DHT22;9905;52.126;5.596;2022-11-20T15:40:11;3.20;99.90
19522;DHT22;9905;52.126;5.596;2022-11-20T15:42:37;3.20;99.90
19522;DHT22;9905;52.126;5.596;2022-11-20T15:45:26;3.20;99.90
19522;DHT22;9905;52.126;5.596;2022-11-20T15:47:54;3.20;99.90
19522;DHT22;9905;52.126;5.596;2022-11-20T15:50:22;3.20;99.90
19522;DHT22;9905;52.126;5.596;2022-11-20T15:52:51;3.20;99.90
19522;DHT22;9905;52.126;5.596;2022-11-20T15:55:18;3.20;99.90
19522;DHT22;9905;52.126;5.596;2022-11-20T15:57:45;3.30;99.90
19522;DHT22;9905;52.126;5.596;2022-11-20T16:00:12;3.30;99.90
19522;DHT22;9905;52.126;5.596;2022-11-20T16:02:41;3.30;99.90
19522;DHT22;9905;52.126;5.596;2022-11-20T16:05:11;3.20;99.90
19522;DHT22;9905;52.126;5.596;2022-11-20T16:07:38;3.20;99.90
19522;DHT22;9905;52.126;5.596;2022-11-20T16:10:05;3.20;99.90
19522;DHT22;9905;52.126;5.596;2022-11-20T16:12:32;3.10;99.90
19522;DHT22;9905;52.126;5.596;2022-11-20T16:15:16;3.10;99.90
19522;DHT22;9905;52.126;5.596;2022-11-20T16:18:01;3.10;99.90